Time;durP1;ratioP1;P1;durP2;ratioP2;P2;SDS_P1;SDS_P2;PMS_P1;PMS_P2;Temp;Humidity;BMP_temperature;BMP_pressure;BME280_temperature;BME280_humidity;BME280_pressure;Samples;Min_cycle;Max_cycle;Signal;HPM_P1;HPM_P2
2021/11/17 02:27:16;;;;;;;32.63;13.35;;;7.60;99.90;;;5.40;100.00;100941.66;5031615;28;20104;-86
2021/11/17 02:30:06;;;;;;;37.00;14.38;;;7.50;99.90;;;5.37;100.00;100935.69;5031268;28;20065;-85
2021/11/17 02:33:08;;;;;;;34.60;13.43;;;7.50;99.90;;;5.40;100.00;100936.25;5031581;28;20159;-85
2021/11/17 02:36:23;;;;;;;33.92;14.98;;;7.60;99.90;;;5.39;100.00;100939.97;5011747;28;20054;-86
2021/11/17 02:39:23;;;;;;;36.72;14.90;;;7.50;99.90;;;5.34;100.00;100942.22;5015962;28;20049;-86
2021/11/17 02:42:12;;;;;;;35.90;14.75;;;7.50;99.90;;;5.38;100.00;100938.25;5030341;28;20065;-86
2021/11/17 02:45:01;;;;;;;37.47;15.07;;;7.50;99.90;;;5.37;100.00;100943.78;5031292;28;20480;-85
2021/11/17 02:47:49;;;;;;;35.25;15.05;;;7.50;99.90;;;5.36;100.00;100939.41;5030635;28;20038;-86
2021/11/17 02:51:00;;;;;;;37.28;15.88;;;7.50;99.90;;;5.41;100.00;100937.97;5013462;28;20091;-87
2021/11/17 02:53:54;;;;;;;37.45;15.68;;;7.50;99.90;;;5.41;100.00;100935.28;5014370;28;20081;-86
2021/11/17 02:56:44;;;;;;;36.35;15.93;;;7.50;99.90;;;5.37;100.00;100927.59;5031216;28;20065;-86
2021/11/17 02:59:35;;;;;;;33.50;15.32;;;7.50;99.90;;;5.40;100.00;100925.47;5030273;28;20099;-85
2021/11/17 03:02:34;;;;;;;36.28;15.38;;;7.50;99.90;;;5.38;100.00;100923.91;5031287;28;20119;-86
2021/11/17 03:05:33;;;;;;;39.58;16.52;;;7.50;99.90;;;5.40;100.00;100924.63;5013245;28;20413;-86
2021/11/17 03:08:21;;;;;;;40.97;16.48;;;7.50;99.90;;;5.36;100.00;100917.81;5030382;28;20069;-85
2021/11/17 03:11:28;;;;;;;39.65;16.40;;;7.50;99.90;;;5.38;100.00;100921.22;5030889;28;20120;-86
2021/11/17 03:14:21;;;;;;;40.03;16.50;;;7.50;99.90;;;5.39;100.00;100922.94;5021905;28;20053;-85
2021/11/17 03:17:21;;;;;;;41.95;16.63;;;7.40;99.90;;;5.39;100.00;100918.38;5027941;28;20073;-86
2021/11/17 03:20:11;;;;;;;37.33;17.48;;;7.50;99.90;;;5.41;100.00;100931.75;5030081;28;20476;-86
2021/11/17 03:22:57;;;;;;;38.50;16.42;;;7.40;99.90;;;5.38;100.00;100926.63;5049631;22;20700;-81
2021/11/17 03:25:50;;;;;;;40.63;16.88;;;7.40;99.90;;;5.38;100.00;100929.31;5048915;28;20049;-83
2021/11/17 03:28:43;;;;;;;41.70;16.67;;;7.40;99.90;;;5.37;100.00;100924.88;5049291;28;20041;-83
2021/11/17 03:31:35;;;;;;;37.58;17.08;;;7.50;99.90;;;5.37;100.00;100925.78;5050123;28;20131;-84
2021/11/17 03:34:48;;;;;;;39.80;17.52;;;7.50;99.90;;;5.38;100.00;100926.63;5050094;28;20076;-83
2021/11/17 03:37:44;;;;;;;41.95;17.35;;;7.50;99.90;;;5.34;100.00;100934.13;5052197;28;20052;-83
2021/11/17 03:40:37;;;;;;;39.00;17.30;;;7.50;99.90;;;5.41;100.00;100937.13;5050023;28;20072;-83
2021/11/17 03:44:07;;;;;;;37.00;17.02;;;7.50;99.90;;;5.43;100.00;100946.78;5049800;28;20622;-83
2021/11/17 03:47:11;;;;;;;40.10;16.33;;;7.50;99.90;;;5.37;100.00;100941.97;5035403;28;20083;-83
2021/11/17 03:50:02;;;;;;;42.05;17.25;;;7.50;99.90;;;5.44;100.00;100947.63;5049087;28;20052;-83
2021/11/17 03:52:56;;;;;;;46.10;18.73;;;7.50;99.90;;;5.44;100.00;100947.63;5049673;28;20045;-83
2021/11/17 03:56:03;;;;;;;43.10;17.15;;;7.50;99.90;;;5.47;100.00;100948.22;5049626;28;20079;-83
2021/11/17 03:58:51;;;;;;;41.25;17.50;;;7.50;99.90;;;5.48;100.00;100944.53;5049075;28;20593;-84
2021/11/17 04:01:46;;;;;;;48.50;19.00;;;7.50;99.90;;;5.46;100.00;100943.81;5049563;28;20075;-83
2021/11/17 04:04:40;;;;;;;41.25;17.50;;;7.50;99.90;;;5.44;100.00;100945.78;5049284;28;20080;-83
2021/11/17 04:07:34;;;;;;;40.15;17.58;;;7.60;99.90;;;5.46;100.00;100949.22;5049341;28;20390;-83
2021/11/17 04:10:43;;;;;;;41.90;18.02;;;7.50;99.90;;;5.46;100.00;100956.44;5049290;28;20072;-83
2021/11/17 04:13:26;;;;;;;54.15;19.08;;;7.60;99.90;;;5.41;100.00;100954.19;5049392;28;20128;-83
2021/11/17 04:16:12;;;;;;;45.15;18.70;;;7.50;99.90;;;5.43;100.00;100954.88;5049245;28;20040;-83
2021/11/17 04:18:57;;;;;;;48.28;19.60;;;7.50;99.90;;;5.41;100.00;100958.72;5028606;28;20124;-83
2021/11/17 04:21:57;;;;;;;45.83;18.65;;;7.50;99.90;;;5.42;100.00;100955.88;5028065;28;20053;-83
2021/11/17 04:24:49;;;;;;;48.40;19.23;;;7.50;99.90;;;5.43;100.00;100952.19;5029071;28;20053;-84
2021/11/17 04:27:43;;;;;;;46.08;20.05;;;7.60;99.90;;;5.47;100.00;100959.00;5029239;28;20064;-87
2021/11/17 04:31:09;;;;;;;45.83;19.20;;;7.60;99.90;;;5.46;100.00;100954.63;5044426;28;20049;-87
2021/11/17 04:34:20;;;;;;;44.30;19.30;;;7.50;99.90;;;5.48;100.00;100941.84;5029093;28;20120;-80
2021/11/17 04:37:45;;;;;;;50.33;18.85;;;7.50;99.90;;;5.42;100.00;100944.22;5029035;28;20041;-81
2021/11/17 04:40:56;;;;;;;44.75;18.60;;;7.50;99.90;;;5.51;100.00;100981.19;4968119;28;20093;-81
2021/11/17 04:43:56;;;;;;;51.25;19.65;;;7.50;99.90;;;5.54;100.00;100996.22;5048198;28;20064;-82
2021/11/17 04:46:46;;;;;;;44.97;18.08;;;7.60;99.90;;;5.45;100.00;100982.59;5047440;28;20072;-81
2021/11/17 04:49:51;;;;;;;46.63;18.40;;;7.60;99.90;;;5.49;100.00;100983.16;5048048;28;20500;-81
2021/11/17 04:52:46;;;;;;;45.17;17.90;;;7.60;99.90;;;5.52;100.00;100990.13;5048708;28;20508;-82
2021/11/17 04:55:41;;;;;;;46.58;19.33;;;7.60;99.90;;;5.53;100.00;100990.00;5048800;28;20087;-82
2021/11/17 04:58:38;;;;;;;51.50;19.48;;;7.60;99.90;;;5.49;100.00;100988.56;5047680;28;20069;-81
2021/11/17 05:01:46;;;;;;;43.95;18.70;;;7.60;99.90;;;5.54;100.00;100997.13;5047757;28;20139;-81
2021/11/17 05:04:32;;;;;;;47.47;18.73;;;7.60;99.90;;;5.55;100.00;100987.16;5014463;28;20152;-81
2021/11/17 05:07:19;;;;;;;41.75;18.02;;;7.60;99.90;;;5.57;100.00;100980.59;5048578;28;20045;-81
2021/11/17 05:10:00;;;;;;;46.72;19.05;;;7.60;99.90;;;5.59;100.00;100972.38;5045851;28;20164;-82
2021/11/17 05:12:49;;;;;;;45.30;18.88;;;7.70;99.90;;;5.62;100.00;100970.25;5047143;28;20151;-82
2021/11/17 05:15:34;;;;;;;47.97;20.00;;;7.70;99.90;;;5.59;100.00;100951.63;5048420;28;20060;-81
2021/11/17 05:18:16;;;;;;;53.08;20.70;;;7.70;99.90;;;5.62;100.00;100955.91;5032075;28;20041;-81
2021/11/17 05:21:02;;;;;;;50.58;19.90;;;7.70;99.90;;;5.58;100.00;100949.94;5028629;28;20038;-81
2021/11/17 05:24:04;;;;;;;48.03;19.58;;;7.60;99.90;;;5.54;100.00;100955.75;5045289;28;20052;-82
2021/11/17 05:26:52;;;;;;;44.35;19.73;;;7.70;99.90;;;5.58;100.00;100949.06;5048371;28;20041;-81
2021/11/17 05:29:41;;;;;;;48.92;20.33;;;7.70;99.90;;;5.59;100.00;100958.88;5047500;28;20120;-90
2021/11/17 05:32:27;;;;;;;44.28;18.73;;;7.70;99.90;;;5.64;100.00;100948.50;5048633;28;20069;-86
2021/11/17 05:35:20;;;;;;;50.83;19.67;;;7.70;99.90;;;5.64;100.00;100943.13;5048435;28;20049;-88
2021/11/17 05:38:02;;;;;;;49.45;19.30;;;7.70;99.90;;;5.63;100.00;100931.44;5047484;28;20500;-88
2021/11/17 05:40:56;;;;;;;48.67;18.70;;;7.70;99.90;;;5.67;100.00;100940.09;5048500;28;20126;-87
2021/11/17 05:43:42;;;;;;;46.78;18.65;;;7.70;99.90;;;5.73;100.00;100960.28;5048202;28;20045;-89
2021/11/17 05:46:27;;;;;;;49.20;18.98;;;7.70;99.90;;;5.66;100.00;100949.22;5048354;28;20073;-88
2021/11/17 05:49:14;;;;;;;48.13;19.80;;;7.70;99.90;;;5.68;100.00;100955.34;5046794;28;20866;-93
2021/11/17 06:08:04;;;;;;;43.22;17.90;;;7.70;99.90;;;5.67;100.00;100915.81;5025780;28;20533;-89
2021/11/17 06:10:36;;;;;;;46.58;18.27;;;7.70;99.90;;;5.71;100.00;100908.28;5028510;28;20448;-88
2021/11/17 06:13:06;;;;;;;46.03;19.05;;;7.80;99.90;;;5.66;100.00;100914.97;5022363;28;20510;-89
2021/11/17 06:15:35;;;;;;;42.88;18.08;;;7.80;99.90;;;5.68;100.00;100910.28;5008897;28;20049;-88
2021/11/17 06:18:06;;;;;;;44.72;18.60;;;7.80;99.90;;;5.72;100.00;100910.84;5010881;28;20483;-89
2021/11/17 06:20:35;;;;;;;44.65;17.48;;;7.80;99.90;;;5.72;100.00;100912.69;5010399;28;20077;-87
2021/11/17 06:23:09;;;;;;;48.25;19.05;;;7.80;99.90;;;5.73;100.00;100926.06;4999757;28;20054;-87
2021/11/17 06:25:43;;;;;;;43.63;17.40;;;7.80;99.90;;;5.75;100.00;100917.78;4994229;28;20117;-88
2021/11/17 06:28:11;;;;;;;42.88;17.15;;;7.80;99.90;;;5.78;100.00;100918.38;5007445;28;20046;-88
2021/11/17 06:30:43;;;;;;;46.50;18.55;;;7.70;99.90;;;5.76;100.00;100914.94;5009728;28;20045;-88
2021/11/17 06:33:11;;;;;;;50.08;18.50;;;7.80;99.90;;;5.76;100.00;100923.06;5011296;28;20042;-91
2021/11/17 06:35:40;;;;;;;41.88;17.63;;;7.80;99.90;;;5.78;100.00;100934.56;5009188;28;20041;-92
2021/11/17 06:38:10;;;;;;;48.25;18.73;;;7.80;99.90;;;5.79;100.00;100925.47;5014001;28;20049;-94
2021/11/17 06:40:44;;;;;;;45.30;18.52;;;7.80;99.90;;;5.75;100.00;100920.50;5032615;28;20054;-93
2021/11/17 06:43:13;;;;;;;44.08;18.55;;;7.80;99.90;;;5.76;100.00;100923.06;5028185;28;20046;-94
2021/11/17 06:45:45;;;;;;;45.10;18.63;;;7.80;99.90;;;5.80;100.00;100935.28;5028584;28;20054;-93
2021/11/17 06:48:15;;;;;;;46.95;18.27;;;7.80;99.90;;;5.83;100.00;100935.00;5027532;28;20093;-93
2021/11/17 06:50:47;;;;;;;45.55;18.95;;;7.90;99.90;;;5.80;100.00;100924.47;5029891;28;20046;-92
2021/11/17 06:53:15;;;;;;;44.70;18.05;;;7.90;99.90;;;5.78;100.00;100942.66;5012765;28;20046;-93
2021/11/17 06:55:47;;;;;;;43.88;18.02;;;7.90;99.90;;;5.82;100.00;100927.88;5013336;28;20104;-92
2021/11/17 06:58:15;;;;;;;43.05;19.08;;;7.90;99.90;;;5.83;100.00;100924.19;4998415;28;20042;-94
2021/11/17 07:00:45;;;;;;;45.55;19.20;;;7.90;99.90;;;5.85;100.00;100924.91;4991095;28;20527;-88
2021/11/17 07:03:15;;;;;;;40.30;18.13;;;7.90;99.90;;;5.86;100.00;100926.63;5000806;28;20034;-94
2021/11/17 07:13:43;;;;;;;43.08;19.52;;;7.90;99.90;;;6.01;100.00;100912.69;5031841;28;20082;-87
2021/11/17 07:16:13;;;;;;;41.90;18.50;;;7.90;99.90;;;5.99;100.00;100909.28;5030005;28;20476;-89
2021/11/17 07:18:41;;;;;;;42.90;18.42;;;7.90;99.90;;;5.97;100.00;100901.31;5026549;28;20050;-88
2021/11/17 07:21:09;;;;;;;40.53;17.77;;;7.90;99.90;;;6.01;100.00;100916.22;5030621;28;20144;-89
2021/11/17 07:23:37;;;;;;;41.00;17.83;;;7.90;99.90;;;6.06;100.00;100910.41;5027893;28;20065;-88
2021/11/17 07:26:05;;;;;;;47.90;17.85;;;8.10;99.90;;;6.12;100.00;100914.38;5014081;28;20131;-90
2021/11/17 07:28:33;;;;;;;41.45;17.85;;;7.90;99.90;;;6.09;100.00;100918.19;5024629;28;20044;-90
2021/11/17 07:31:01;;;;;;;42.67;18.15;;;8.00;99.90;;;6.09;100.00;100923.59;5029174;28;20052;-90
2021/11/17 07:33:29;;;;;;;40.58;18.52;;;8.00;99.90;;;6.18;100.00;100930.84;5018107;28;20471;-91
2021/11/17 07:35:56;;;;;;;45.13;17.48;;;8.00;99.90;;;6.23;100.00;100942.06;5010504;28;20046;-89
2021/11/17 07:38:25;;;;;;;40.13;17.83;;;8.10;99.90;;;6.23;100.00;100942.06;5025907;28;20053;-90
2021/11/17 07:40:54;;;;;;;42.30;18.17;;;8.10;99.90;;;6.30;100.00;100960.41;5030327;28;20067;-89
2021/11/17 07:43:25;;;;;;;36.17;17.52;;;8.10;99.90;;;6.35;100.00;100955.44;5028838;28;20045;-89
2021/11/17 07:45:52;;;;;;;;;;;8.20;99.90;;;6.40;100.00;100955.84;5029291;28;20054;-89
2021/11/17 07:48:25;;;;;;;32.28;15.75;;;8.20;99.90;;;6.38;100.00;100953.28;5023844;28;20403;-91
2021/11/17 07:50:54;;;;;;;34.38;16.60;;;8.20;99.90;;;6.38;100.00;100953.28;5030043;28;20155;-90
2021/11/17 07:53:24;;;;;;;36.45;17.73;;;8.20;99.90;;;6.44;100.00;100962.66;5030247;28;20095;-88
2021/11/17 07:55:54;;;;;;;37.90;17.67;;;8.30;99.90;;;6.45;100.00;100969.75;5028412;28;20056;-89
2021/11/17 07:58:25;;;;;;;35.63;17.30;;;8.20;99.90;;;6.53;100.00;100972.59;5023819;28;20052;-90
2021/11/17 08:00:55;;;;;;;36.10;17.42;;;8.30;99.90;;;6.62;100.00;100987.06;5010170;28;20141;-90
2021/11/17 08:03:28;;;;;;;39.47;18.38;;;8.30;99.90;;;6.69;100.00;100987.34;5009767;28;20061;-90
2021/11/17 08:05:56;;;;;;;33.97;16.90;;;8.40;99.90;;;6.70;100.00;100994.44;5009948;28;20041;-89
2021/11/17 08:08:26;;;;;;;33.13;17.17;;;8.40;99.90;;;6.72;100.00;100987.03;5025364;28;20289;-89
2021/11/17 08:10:54;;;;;;;37.10;16.67;;;8.50;99.90;;;6.67;100.00;100983.94;5008757;28;20096;-90
2021/11/17 08:13:22;;;;;;;36.47;18.00;;;8.50;99.90;;;6.75;100.00;100993.00;5013736;28;20601;-89
2021/11/17 08:15:49;;;;;;;33.92;15.95;;;8.50;99.90;;;6.80;100.00;100981.75;5016551;28;20104;-91
2021/11/17 08:18:16;;;;;;;45.75;17.40;;;8.50;99.90;;;6.79;100.00;100980.03;5009055;28;20046;-92
2021/11/17 08:20:45;;;;;;;38.13;17.23;;;8.50;99.90;;;6.79;100.00;100988.16;5010196;28;20103;-91
2021/11/17 08:23:13;;;;;;;29.80;15.98;;;8.50;99.90;;;6.79;100.00;100988.16;5008473;28;20564;-91
2021/11/17 08:25:41;;;;;;;31.50;16.67;;;8.50;99.90;;;6.75;100.00;100984.03;5008424;28;20053;-90
2021/11/17 08:28:12;;;;;;;32.70;16.40;;;8.60;99.90;;;6.76;100.00;100985.72;5021368;28;20075;-89
2021/11/17 08:30:41;;;;;;;33.70;16.45;;;8.60;99.90;;;6.80;100.00;100974.50;5027867;28;20053;-89
2021/11/17 08:33:11;;;;;;;32.72;15.60;;;8.60;99.90;;;6.82;100.00;100971.63;5029325;28;20075;-91
2021/11/17 08:35:39;;;;;;;36.90;16.40;;;8.60;99.90;;;6.76;100.00;100973.09;5027941;28;20742;-89
2021/11/17 08:38:12;;;;;;;33.53;15.90;;;8.60;99.90;;;6.77;100.00;100972.06;5025897;28;20072;-89
2021/11/17 08:40:44;;;;;;;30.00;15.32;;;8.60;99.90;;;6.76;100.00;100964.09;5029195;28;20291;-88
2021/11/17 08:43:12;;;;;;;31.40;15.07;;;8.70;99.90;;;6.82;100.00;100968.94;5027609;28;20056;-88
2021/11/17 08:45:41;;;;;;;32.80;16.02;;;8.60;99.90;;;6.84;100.00;100966.94;5025747;28;20049;-89
2021/11/17 08:48:09;;;;;;;27.55;14.52;;;8.60;99.90;;;6.85;100.00;100964.06;5024150;28;20050;-87
2021/11/17 08:50:38;;;;;;;29.25;15.18;;;8.60;99.90;;;6.90;100.00;100963.63;5029179;28;20095;-85
2021/11/17 08:53:09;;;;;;;31.75;15.57;;;8.60;99.90;;;6.95;100.00;100955.91;5028932;28;20045;-85
2021/11/17 08:55:37;;;;;;;31.13;15.27;;;8.70;99.90;;;6.99;100.00;100943.78;5029436;28;20498;-87
2021/11/17 08:58:06;;;;;;;30.45;15.40;;;8.60;99.90;;;7.02;100.00;100950.72;5023961;28;20049;-88
2021/11/17 09:00:34;;;;;;;30.35;15.50;;;8.60;99.90;;;7.06;100.00;100949.41;5028888;28;20069;-87
2021/11/17 09:03:05;;;;;;;29.80;15.05;;;8.70;99.90;;;7.05;100.00;100962.13;5028920;28;20061;-87
2021/11/17 09:05:45;;;;;;;31.33;16.27;;;8.70;99.90;;;6.97;100.00;100974.72;5028526;28;20124;-87
2021/11/17 09:08:15;;;;;;;26.52;14.52;;;8.70;99.90;;;6.90;100.00;100963.63;5024086;28;20071;-88
2021/11/17 09:10:47;;;;;;;28.75;14.50;;;8.70;99.90;;;6.90;100.00;100963.63;5010306;28;20077;-87
2021/11/17 09:13:15;;;;;;;30.02;14.70;;;8.70;99.90;;;6.90;100.00;100965.47;5013884;28;20050;-86
2021/11/17 09:15:47;;;;;;;28.75;14.77;;;8.70;99.90;;;6.89;100.00;100969.16;5014934;28;20080;-86
2021/11/17 09:18:16;;;;;;;30.70;14.75;;;8.70;99.90;;;6.90;100.00;100973.59;5021267;28;20045;-88
2021/11/17 09:20:45;;;;;;;30.42;14.25;;;8.70;99.90;;;6.91;100.00;100980.69;5028583;28;20040;-86
2021/11/17 09:23:14;;;;;;;29.27;14.13;;;8.80;99.90;;;6.89;100.00;100983.53;5138455;23;20417;-89
2021/11/17 09:25:42;;;;;;;30.30;13.55;;;8.80;99.90;;;6.91;100.00;100984.28;5039145;28;20145;-88
2021/11/17 09:28:10;;;;;;;26.77;13.02;;;8.80;99.90;;;6.95;100.00;100977.56;5044573;28;20783;-88
2021/11/17 09:30:40;;;;;;;29.65;14.60;;;8.80;99.90;;;7.03;100.00;100980.34;5027205;28;20576;-88
2021/11/17 09:33:11;;;;;;;27.35;13.75;;;8.80;99.90;;;7.05;100.00;100962.13;5026304;28;20049;-88
2021/11/17 09:35:39;;;;;;;26.55;13.18;;;8.80;99.90;;;7.10;100.00;100968.91;5025003;28;20057;-88
2021/11/17 09:38:10;;;;;;;29.63;13.63;;;8.80;99.90;;;7.12;100.00;100973.19;5025837;28;20050;-88
2021/11/17 09:40:44;;;;;;;28.80;14.15;;;8.80;99.90;;;7.14;100.00;100975.72;5025692;28;20127;-89
2021/11/17 09:43:17;;;;;;;29.23;14.20;;;8.90;99.90;;;7.13;100.00;100990.28;5025397;28;20079;-88
2021/11/17 09:45:47;;;;;;;27.55;13.95;;;8.90;99.90;;;7.10;100.00;100982.44;5007309;28;20050;-89
2021/11/17 09:48:20;;;;;;;27.13;13.57;;;8.90;99.90;;;7.12;100.00;100984.03;5028455;28;20053;-88
2021/11/17 09:50:52;;;;;;;28.77;14.15;;;8.90;99.90;;;7.14;100.00;100990.13;5025903;28;20092;-88
2021/11/17 09:53:24;;;;;;;28.00;14.15;;;8.90;99.90;;;7.15;100.00;100999.09;5010214;28;20116;-87
2021/11/17 09:56:00;;;;;;;29.58;14.35;;;9.00;99.90;;;7.17;100.00;100999.81;5010381;28;20573;-88
2021/11/17 09:58:32;;;;;;;27.85;13.95;;;9.00;99.90;;;7.18;100.00;101001.53;5030156;28;20045;-87
2021/11/17 10:01:05;;;;;;;28.30;14.15;;;9.00;99.90;;;7.18;100.00;101015.06;5029692;28;20116;-88
2021/11/17 10:03:43;;;;;;;31.73;13.98;;;9.00;99.90;;;7.19;100.00;101011.34;5030119;28;20041;-89
2021/11/17 10:12:03;;;;;;;32.58;14.55;;;9.10;99.90;;;7.32;100.00;101008.28;5009865;28;20045;-89
2021/11/17 10:14:36;;;;;;;28.52;12.82;;;9.00;99.90;;;7.40;100.00;101011.91;5024473;28;20115;-90
2021/11/17 10:17:24;;;;;;;31.77;14.90;;;9.10;99.90;;;7.44;100.00;101015.16;5030776;28;20041;-88
2021/11/17 10:20:12;;;;;;;29.17;14.30;;;9.10;99.90;;;7.40;100.00;101011.91;5029436;28;20560;-88
2021/11/17 10:22:45;;;;;;;29.55;13.75;;;9.10;99.90;;;7.38;100.00;101016.63;5031214;28;20047;-89
2021/11/17 10:25:17;;;;;;;29.60;14.45;;;9.10;99.90;;;7.40;100.00;101020.03;5029770;28;20042;-88
2021/11/17 10:27:57;;;;;;;31.30;14.50;;;9.20;99.90;;;7.38;100.00;101015.78;5030599;28;20037;-87
2021/11/17 10:30:34;;;;;;;27.55;14.30;;;9.20;99.90;;;7.41;100.00;101016.34;5029391;28;20047;-88
2021/11/17 10:33:21;;;;;;;29.73;14.20;;;9.20;99.90;;;7.40;100.00;101030.03;5029383;28;20057;-88
2021/11/17 10:36:08;;;;;;;30.45;14.30;;;9.20;99.90;;;7.38;100.00;101030.16;5029607;28;20410;-87
2021/11/17 10:38:45;;;;;;;28.58;13.85;;;9.20;99.90;;;7.40;100.00;101022.75;5028276;28;20475;-88
2021/11/17 10:41:23;;;;;;;27.08;13.73;;;9.20;99.90;;;7.45;100.00;101016.91;5029229;28;20545;-88
2021/11/17 10:44:00;;;;;;;30.30;14.00;;;9.30;99.90;;;7.48;100.00;101023.84;5030670;28;20792;-89
2021/11/17 10:46:33;;;;;;;30.65;14.95;;;9.30;99.90;;;7.46;100.00;101013.16;5029859;28;20068;-88
2021/11/17 10:49:11;;;;;;;33.35;15.20;;;9.30;99.90;;;7.49;100.00;101010.16;5030256;28;20462;-88
2021/11/17 10:51:54;;;;;;;29.05;14.57;;;9.30;99.90;;;7.57;100.00;101010.25;5045655;28;20049;-88
2021/11/17 10:54:28;;;;;;;30.95;14.35;;;9.30;99.90;;;7.61;100.00;101017.06;5029123;28;20492;-88
2021/11/17 10:57:02;;;;;;;31.80;14.80;;;9.30;99.90;;;7.63;100.00;101025.91;5045511;28;20394;-88
2021/11/17 10:59:32;;;;;;;35.70;15.38;;;9.40;99.90;;;7.64;100.00;101021.34;5029316;28;20041;-88
2021/11/17 11:02:01;;;;;;;34.33;15.15;;;9.40;99.90;;;7.60;100.00;101022.66;5045652;28;20053;-88
2021/11/17 11:04:35;;;;;;;38.55;15.13;;;9.40;99.90;;;7.63;100.00;101019.63;5028997;28;20119;-89
2021/11/17 11:07:10;;;;;;;33.25;14.80;;;9.40;99.90;;;7.63;100.00;101009.66;5029697;28;20042;-88
2021/11/17 11:09:43;;;;;;;37.28;15.57;;;9.40;99.90;;;7.64;100.00;101015.91;5012036;28;20057;-89
2021/11/17 11:12:14;;;;;;;35.85;15.05;;;9.50;99.90;;;7.64;100.00;101015.91;5030292;28;20044;-88
2021/11/17 11:14:53;;;;;;;34.50;15.52;;;9.50;99.90;;;7.67;100.00;101009.31;5029061;28;20120;-89
2021/11/17 11:17:28;;;;;;;37.25;16.45;;;9.50;99.90;;;7.72;100.00;101016.00;5035593;28;20041;-88
2021/11/17 11:20:47;;;;;;;34.78;16.25;;;9.50;99.90;;;7.75;100.00;100996.72;5028604;28;20080;-89
2021/11/17 11:23:28;;;;;;;34.17;15.70;;;9.60;99.90;;;7.78;100.00;101004.53;4994910;28;20395;-88
2021/11/17 11:26:13;;;;;;;34.75;15.18;;;9.60;99.90;;;7.85;100.00;100995.81;5028524;28;20060;-89
2021/11/17 11:28:51;;;;;;;36.80;16.73;;;9.60;99.90;;;7.84;100.00;100989.50;5027412;28;20080;-88
2021/11/17 11:31:43;;;;;;;38.70;17.17;;;9.60;99.90;;;7.91;100.00;100997.88;5044991;28;20084;-89
2021/11/17 11:34:47;;;;;;;36.55;17.27;;;9.60;99.90;;;7.93;100.00;100996.72;5028598;28;20103;-88
2021/11/17 11:38:08;;;;;;;37.88;16.75;;;9.70;99.90;;;7.97;100.00;100995.38;5030726;28;20048;-88
2021/11/17 11:41:11;;;;;;;37.85;17.45;;;9.70;99.90;;;7.95;100.00;101002.81;5028089;28;20042;-90
2021/11/17 11:43:41;;;;;;;37.13;15.73;;;9.70;99.90;;;7.96;100.00;100993.69;5015409;28;20053;-89
2021/11/17 11:46:31;;;;;;;37.35;16.13;;;9.70;99.90;;;7.95;100.00;100993.84;5029756;28;20033;-89
2021/11/17 11:49:05;;;;;;;45.22;18.63;;;9.70;99.90;;;7.92;100.00;101005.00;5008479;28;20060;-88
2021/11/17 11:52:13;;;;;;;41.67;18.40;;;9.70;99.90;;;7.90;100.00;101017.84;5008061;28;20049;-88
2021/11/17 11:55:24;;;;;;;46.40;18.90;;;9.70;99.90;;;7.85;100.00;101017.47;5024845;28;20049;-89
2021/11/17 11:58:13;;;;;;;41.20;18.45;;;9.70;99.90;;;7.84;100.00;101011.19;5019814;28;20134;-88
2021/11/17 12:00:41;;;;;;;43.78;17.75;;;9.70;99.90;;;7.83;100.00;101021.19;5027547;28;20056;-88
2021/11/17 12:03:11;;;;;;;44.28;18.23;;;9.70;99.90;;;7.79;100.00;101021.66;5028937;28;20529;-89
2021/11/17 12:05:46;;;;;;;43.05;17.70;;;9.70;99.90;;;7.81;100.00;101028.63;5027623;28;20414;-89
2021/11/17 12:08:18;;;;;;;42.63;17.25;;;9.70;99.90;;;7.77;100.00;101021.81;5026965;28;20045;-88
2021/11/17 12:10:50;;;;;;;39.72;18.58;;;9.80;99.90;;;7.80;100.00;101017.94;5044098;28;20521;-88
2021/11/17 12:13:22;;;;;;;42.13;18.20;;;9.70;99.90;;;7.81;100.00;101023.19;5027769;28;20056;-88
2021/11/17 12:16:04;;;;;;;39.10;17.00;;;9.70;99.90;;;7.79;100.00;101016.25;5027509;28;20502;-88
2021/11/17 12:18:45;;;;;;;40.00;16.77;;;9.70;99.90;;;7.76;100.00;101020.09;5028535;28;20049;-89
2021/11/17 12:21:18;;;;;;;42.23;18.07;;;9.70;99.90;;;7.78;100.00;101017.22;5027721;28;20049;-88
2021/11/17 12:24:00;;;;;;;42.92;18.30;;;9.70;99.90;;;7.75;100.00;101018.41;5027186;28;20422;-88
2021/11/17 12:26:29;;;;;;;45.40;19.35;;;9.70;99.90;;;7.75;100.00;101018.41;5027122;28;20049;-91
2021/11/17 12:29:01;;;;;;;39.13;16.50;;;9.70;99.90;;;7.78;100.00;101023.50;5027060;28;20128;-88
2021/11/17 12:31:35;;;;;;;45.72;18.83;;;9.70;99.90;;;7.76;100.00;101030.09;5028426;28;20103;-88
2021/11/17 12:34:15;;;;;;;42.67;17.50;;;9.70;99.90;;;7.74;100.00;101032.09;5027446;28;20935;-89
2021/11/17 12:36:57;;;;;;;41.78;18.00;;;9.70;99.90;;;7.75;100.00;101044.63;5029607;28;20115;-88
2021/11/17 12:39:29;;;;;;;45.00;18.40;;;9.70;99.90;;;7.75;100.00;101040.06;5027246;28;20144;-89
2021/11/17 12:42:00;;;;;;;42.83;17.98;;;9.70;99.90;;;7.75;100.00;101050.91;5026817;28;20072;-88
2021/11/17 12:44:33;;;;;;;42.05;17.92;;;9.80;99.90;;;7.78;100.00;101050.59;5046020;28;20053;-89
2021/11/17 12:47:08;;;;;;;46.67;18.17;;;9.80;99.90;;;7.80;100.00;101047.72;5038294;28;20473;-89
2021/11/17 12:49:39;;;;;;;42.15;17.60;;;9.80;99.90;;;7.80;100.00;101051.28;5026979;28;20049;-88
2021/11/17 12:52:12;;;;;;;42.10;17.85;;;9.80;99.90;;;7.81;100.00;101044.03;5028146;28;20041;-89
2021/11/17 12:54:47;;;;;;;43.72;17.55;;;9.80;99.90;;;7.79;100.00;101057.72;5027231;28;20076;-89
2021/11/17 12:57:21;;;;;;;47.95;17.90;;;9.80;99.90;;;7.77;100.00;101054.31;5023412;28;20544;-89
2021/11/17 12:59:53;;;;;;;47.88;18.33;;;9.80;99.90;;;7.77;100.00;101062.44;5027201;28;20037;-89
2021/11/17 13:02:45;;;;;;;45.75;17.75;;;9.80;99.90;;;7.77;100.00;101065.16;5027257;28;20402;-89
2021/11/17 13:05:24;;;;;;;44.75;18.05;;;9.80;99.90;;;7.78;100.00;101072.25;5027169;28;20045;-90
2021/11/17 13:07:59;;;;;;;42.25;18.20;;;9.80;99.90;;;7.77;100.00;101073.28;5028379;28;20490;-88
2021/11/17 13:10:38;;;;;;;45.80;18.00;;;9.80;99.90;;;7.75;100.00;101071.72;5030176;28;20076;-88
2021/11/17 13:13:20;;;;;;;53.47;19.83;;;9.80;99.90;;;7.79;100.00;101075.84;5029473;28;20069;-90
2021/11/17 13:16:06;;;;;;;40.30;18.13;;;9.80;99.90;;;7.86;100.00;101073.38;5028426;28;20061;-89
2021/11/17 13:18:37;;;;;;;40.88;18.13;;;9.80;99.90;;;7.84;100.00;101081.66;5027688;28;20057;-89
2021/11/17 13:21:28;;;;;;;51.38;20.73;;;9.80;99.90;;;7.86;100.00;101081.50;5029838;28;20468;-89
2021/11/17 13:24:12;;;;;;;49.85;19.63;;;9.80;99.90;;;7.87;100.00;101080.50;5030332;28;20069;-89
2021/11/17 13:26:44;;;;;;;51.08;18.90;;;9.90;99.90;;;7.90;100.00;101069.34;5030189;28;20045;-85
2021/11/17 13:29:27;;;;;;;50.05;19.05;;;9.90;99.90;;;7.87;100.00;101077.78;5045687;28;20052;-86
2021/11/17 13:32:19;;;;;;;43.72;19.15;;;9.80;99.90;;;7.83;100.00;101091.63;5035233;28;20056;-86
2021/11/17 13:34:48;;;;;;;;;;;9.90;99.90;;;7.85;100.00;101071.69;5032515;28;20107;-86
2021/11/17 13:37:22;;;;;;;44.95;18.92;;;9.90;99.90;;;7.86;100.00;101068.78;5030965;28;19927;-85
2021/11/17 13:39:55;;;;;;;53.50;20.15;;;9.90;99.90;;;7.91;100.00;101071.91;5011663;28;20514;-85
2021/11/17 13:42:25;;;;;;;46.90;18.63;;;9.90;99.90;;;7.97;100.00;101070.44;5029991;28;20058;-88
2021/11/17 13:44:56;;;;;;;45.00;19.33;;;9.90;99.90;;;7.98;100.00;101070.28;5015193;28;20041;-88
2021/11/17 13:47:26;;;;;;;44.15;19.05;;;9.90;99.90;;;8.06;100.00;101066.81;5014296;28;20391;-87
2021/11/17 13:49:57;;;;;;;47.28;19.63;;;10.00;99.90;;;8.08;100.00;101074.78;5013296;28;20057;-87
2021/11/17 13:52:28;;;;;;;54.33;20.00;;;10.00;99.90;;;8.06;100.00;101069.50;5013670;28;20052;-87
2021/11/17 13:54:55;;;;;;;51.65;20.33;;;10.00;99.90;;;8.04;100.00;101060.69;5014136;28;20598;-88